sensor_id;sensor_type;location;lat;lon;timestamp;pressure;altitude;pressure_sealevel;temperature;humidity
5283;BME280;15376;48.540;9.268;2023-06-19T00:00:49;97082.00;;;21.74;69.42
5283;BME280;15376;48.540;9.268;2023-06-19T00:03:14;97090.16;;;21.84;68.63
5283;BME280;15376;48.540;9.268;2023-06-19T00:05:39;97071.72;;;21.71;68.04
5283;BME280;15376;48.540;9.268;2023-06-19T00:08:05;97060.31;;;21.63;68.82
5283;BME280;15376;48.540;9.268;2023-06-19T00:10:31;97084.97;;;21.77;69.51
5283;BME280;15376;48.540;9.268;2023-06-19T00:12:57;97085.25;;;21.76;69.87
5283;BME280;15376;48.540;9.268;2023-06-19T00:15:22;97101.53;;;21.86;69.99
5283;BME280;15376;48.540;9.268;2023-06-19T00:17:48;97076.59;;;21.74;70.12
5283;BME280;15376;48.540;9.268;2023-06-19T00:20:13;97090.38;;;21.77;69.41
5283;BME280;15376;48.540;9.268;2023-06-19T00:22:39;97094.47;;;21.80;67.33
5283;BME280;15376;48.540;9.268;2023-06-19T00:25:05;97096.09;;;21.81;66.07
5283;BME280;15376;48.540;9.268;2023-06-19T00:27:31;97093.94;;;21.83;67.98
5283;BME280;15376;48.540;9.268;2023-06-19T00:29:56;97077.63;;;21.62;67.84
5283;BME280;15376;48.540;9.268;2023-06-19T00:32:28;97093.88;;;21.73;67.94
5283;BME280;15376;48.540;9.268;2023-06-19T00:34:53;97092.78;;;21.69;68.11
5283;BME280;15376;48.540;9.268;2023-06-19T00:37:19;97080.31;;;21.57;68.43
5283;BME280;15376;48.540;9.268;2023-06-19T00:39:44;97050.44;;;21.32;71.23
5283;BME280;15376;48.540;9.268;2023-06-19T00:42:10;97094.28;;;21.44;73.84
5283;BME280;15376;48.540;9.268;2023-06-19T00:44:35;97082.22;;;21.20;72.94
5283;BME280;15376;48.540;9.268;2023-06-19T00:47:02;97101.38;;;21.13;76.69
5283;BME280;15376;48.540;9.268;2023-06-19T00:49:30;97084.09;;;20.82;75.37
5283;BME280;15376;48.540;9.268;2023-06-19T00:51:56;97091.38;;;20.82;77.42
5283;BME280;15376;48.540;9.268;2023-06-19T00:54:22;97104.38;;;20.85;78.04
5283;BME280;15376;48.540;9.268;2023-06-19T00:56:47;97111.84;;;20.73;79.61
5283;BME280;15376;48.540;9.268;2023-06-19T00:59:18;97111.53;;;20.69;80.32
5283;BME280;15376;48.540;9.268;2023-06-19T01:01:44;97091.41;;;20.50;81.81
5283;BME280;15376;48.540;9.268;2023-06-19T01:04:10;97111.03;;;20.72;80.50
5283;BME280;15376;48.540;9.268;2023-06-19T01:06:43;97109.41;;;20.71;78.94
5283;BME280;15376;48.540;9.268;2023-06-19T01:09:11;97102.94;;;20.72;75.10
5283;BME280;15376;48.540;9.268;2023-06-19T01:11:46;97112.16;;;20.76;74.32
5283;BME280;15376;48.540;9.268;2023-06-19T01:14:18;97108.91;;;20.74;73.33
5283;BME280;15376;48.540;9.268;2023-06-19T01:16:45;97112.16;;;20.76;73.17
5283;BME280;15376;48.540;9.268;2023-06-19T01:19:19;97127.84;;;20.84;73.41
5283;BME280;15376;48.540;9.268;2023-06-19T01:21:46;97115.31;;;20.68;73.86
5283;BME280;15376;48.540;9.268;2023-06-19T01:24:12;97120.50;;;20.75;73.05
5283;BME280;15376;48.540;9.268;2023-06-19T01:26:37;97128.63;;;20.80;73.28
5283;BME280;15376;48.540;9.268;2023-06-19T01:29:03;97127.28;;;20.82;73.80
5283;BME280;15376;48.540;9.268;2023-06-19T01:34:14;97155.75;;;20.63;77.61
5283;BME280;15376;48.540;9.268;2023-06-19T01:36:42;97172.19;;;20.61;77.88
5283;BME280;15376;48.540;9.268;2023-06-19T01:39:08;97177.84;;;20.60;78.28
5283;BME280;15376;48.540;9.268;2023-06-19T01:41:35;97163.06;;;20.41;78.17
5283;BME280;15376;48.540;9.268;2023-06-19T01:44:01;97182.09;;;20.56;78.01
5283;BME280;15376;48.540;9.268;2023-06-19T01:46:27;97158.66;;;20.35;78.48
5283;BME280;15376;48.540;9.268;2023-06-19T01:48:52;97190.59;;;20.43;77.68
5283;BME280;15376;48.540;9.268;2023-06-19T01:51:19;97215.09;;;20.63;77.32
5283;BME280;15376;48.540;9.268;2023-06-19T01:53:44;97187.91;;;20.70;76.04
5283;BME280;15376;48.540;9.268;2023-06-19T01:56:09;97192.00;;;20.72;75.18
5283;BME280;15376;48.540;9.268;2023-06-19T01:58:35;97225.63;;;20.91;75.39
5283;BME280;15376;48.540;9.268;2023-06-19T02:01:00;97218.34;;;20.92;74.75
5283;BME280;15376;48.540;9.268;2023-06-19T02:03:26;97215.09;;;20.90;74.21
5283;BME280;15376;48.540;9.268;2023-06-19T02:05:51;97184.22;;;20.76;74.39
5283;BME280;15376;48.540;9.268;2023-06-19T02:08:16;97213.78;;;20.92;74.13
5283;BME280;15376;48.540;9.268;2023-06-19T02:10:42;97188.31;;;20.83;74.05
5283;BME280;15376;48.540;9.268;2023-06-19T02:13:07;97216.78;;;20.96;74.71
5283;BME280;15376;48.540;9.268;2023-06-19T02:15:32;97219.47;;;20.96;75.10
5283;BME280;15376;48.540;9.268;2023-06-19T02:17:59;97228.44;;;21.02;74.06
5283;BME280;15376;48.540;9.268;2023-06-19T02:20:25;97207.88;;;20.95;74.00
5283;BME280;15376;48.540;9.268;2023-06-19T02:22:51;97199.22;;;20.93;73.97
5283;BME280;15376;48.540;9.268;2023-06-19T02:25:17;97214.44;;;21.05;74.24
5283;BME280;15376;48.540;9.268;2023-06-19T02:27:43;97194.41;;;21.01;73.89
5283;BME280;15376;48.540;9.268;2023-06-19T02:30:08;97201.97;;;20.98;74.19
5283;BME280;15376;48.540;9.268;2023-06-19T02:32:34;97210.66;;;21.06;74.08
5283;BME280;15376;48.540;9.268;2023-06-19T02:34:59;97187.03;;;20.91;74.19
5283;BME280;15376;48.540;9.268;2023-06-19T02:37:24;97193.25;;;20.91;74.85
5283;BME280;15376;48.540;9.268;2023-06-19T02:39:50;97195.13;;;20.91;74.68
5283;BME280;15376;48.540;9.268;2023-06-19T02:42:15;97203.59;;;21.00;75.16
5283;BME280;15376;48.540;9.268;2023-06-19T02:44:40;97210.91;;;21.04;75.18
5283;BME280;15376;48.540;9.268;2023-06-19T02:47:07;97197.03;;;20.90;75.72
5283;BME280;15376;48.540;9.268;2023-06-19T02:49:33;97198.66;;;20.91;76.32
5283;BME280;15376;48.540;9.268;2023-06-19T02:51:58;97212.75;;;20.98;76.14
5283;BME280;15376;48.540;9.268;2023-06-19T02:54:23;97188.91;;;20.90;76.72
5283;BME280;15376;48.540;9.268;2023-06-19T02:56:49;97199.72;;;20.90;77.14
5283;BME280;15376;48.540;9.268;2023-06-19T02:59:14;97196.38;;;20.78;77.62
5283;BME280;15376;48.540;9.268;2023-06-19T03:01:39;97151.75;;;20.44;77.74
5283;BME280;15376;48.540;9.268;2023-06-19T03:04:05;97215.78;;;20.75;77.94
5283;BME280;15376;48.540;9.268;2023-06-19T03:06:30;97225.78;;;20.80;78.52
5283;BME280;15376;48.540;9.268;2023-06-19T03:08:56;97232.78;;;20.76;79.72
5283;BME280;15376;48.540;9.268;2023-06-19T03:11:21;97190.19;;;20.56;78.69
5283;BME280;15376;48.540;9.268;2023-06-19T03:13:49;97210.03;;;20.67;78.79
5283;BME280;15376;48.540;9.268;2023-06-19T03:16:15;97215.09;;;20.63;79.54
5283;BME280;15376;48.540;9.268;2023-06-19T03:18:41;97239.81;;;20.77;79.97
5283;BME280;15376;48.540;9.268;2023-06-19T03:21:07;97222.13;;;20.64;80.21
5283;BME280;15376;48.540;9.268;2023-06-19T03:23:32;97242.22;;;20.73;79.85
5283;BME280;15376;48.540;9.268;2023-06-19T03:25:58;97240.88;;;20.76;79.54
5283;BME280;15376;48.540;9.268;2023-06-19T03:28:23;97227.53;;;20.64;79.90
5283;BME280;15376;48.540;9.268;2023-06-19T03:30:50;97244.16;;;20.78;79.54
5283;BME280;15376;48.540;9.268;2023-06-19T03:33:15;97213.28;;;20.69;79.10
5283;BME280;15376;48.540;9.268;2023-06-19T03:35:40;97231.16;;;20.75;79.51
5283;BME280;15376;48.540;9.268;2023-06-19T03:38:06;97246.16;;;20.92;78.49
5283;BME280;15376;48.540;9.268;2023-06-19T03:40:31;97235.88;;;20.89;78.39
5283;BME280;15376;48.540;9.268;2023-06-19T03:42:56;97232.13;;;20.90;78.19
5283;BME280;15376;48.540;9.268;2023-06-19T03:45:22;97244.03;;;20.94;78.24
5283;BME280;15376;48.540;9.268;2023-06-19T03:47:47;97221.75;;;20.82;78.06
5283;BME280;15376;48.540;9.268;2023-06-19T03:50:12;97255.41;;;20.96;77.34
5283;BME280;15376;48.540;9.268;2023-06-19T03:52:38;97244.59;;;20.96;77.19
5283;BME280;15376;48.540;9.268;2023-06-19T03:55:03;97245.97;;;20.99;76.84
5283;BME280;15376;48.540;9.268;2023-06-19T03:57:29;97258.75;;;21.09;76.21
5283;BME280;15376;48.540;9.268;2023-06-19T03:59:56;97255.03;;;21.15;75.66
5283;BME280;15376;48.540;9.268;2023-06-19T04:02:21;97252.91;;;21.17;74.84
5283;BME280;15376;48.540;9.268;2023-06-19T04:04:47;97240.47;;;21.16;74.40
5283;BME280;15376;48.540;9.268;2023-06-19T04:07:12;97237.50;;;21.17;74.65
5283;BME280;15376;48.540;9.268;2023-06-19T04:09:38;97259.00;;;21.34;73.98
5283;BME280;15376;48.540;9.268;2023-06-19T04:12:04;97269.22;;;21.27;74.06
5283;BME280;15376;48.540;9.268;2023-06-19T04:14:29;97268.69;;;21.30;74.45
5283;BME280;15376;48.540;9.268;2023-06-19T04:16:55;97253.50;;;21.24;74.79
5283;BME280;15376;48.540;9.268;2023-06-19T04:19:20;97243.97;;;21.16;74.28
5283;BME280;15376;48.540;9.268;2023-06-19T04:21:45;97257.91;;;21.30;74.41
5283;BME280;15376;48.540;9.268;2023-06-19T04:24:11;97254.13;;;21.31;74.21
5283;BME280;15376;48.540;9.268;2023-06-19T04:26:36;97178.31;;;20.84;74.95
5283;BME280;15376;48.540;9.268;2023-06-19T04:29:02;97234.03;;;21.22;75.09
5283;BME280;15376;48.540;9.268;2023-06-19T04:31:27;97235.31;;;21.14;76.09
5283;BME280;15376;48.540;9.268;2023-06-19T04:33:54;97247.28;;;21.23;76.83
5283;BME280;15376;48.540;9.268;2023-06-19T04:36:21;97235.88;;;21.16;76.36
5283;BME280;15376;48.540;9.268;2023-06-19T04:38:47;97236.09;;;21.10;76.42
5283;BME280;15376;48.540;9.268;2023-06-19T04:41:12;97243.78;;;21.23;75.93
5283;BME280;15376;48.540;9.268;2023-06-19T04:43:39;97259.22;;;21.27;76.80
5283;BME280;15376;48.540;9.268;2023-06-19T04:46:06;97242.50;;;21.04;80.88
5283;BME280;15376;48.540;9.268;2023-06-19T04:48:32;97246.69;;;20.89;85.20
5283;BME280;15376;48.540;9.268;2023-06-19T04:50:57;97255.22;;;20.81;87.79
5283;BME280;15376;48.540;9.268;2023-06-19T04:53:26;97259.41;;;20.67;92.91
5283;BME280;15376;48.540;9.268;2023-06-19T04:55:51;97258.22;;;20.58;95.00
5283;BME280;15376;48.540;9.268;2023-06-19T04:58:19;97257.59;;;20.51;97.64
5283;BME280;15376;48.540;9.268;2023-06-19T05:00:46;97254.38;;;20.54;95.72
5283;BME280;15376;48.540;9.268;2023-06-19T05:03:17;97255.78;;;20.56;96.46
5283;BME280;15376;48.540;9.268;2023-06-19T05:05:43;97270.06;;;20.57;93.07
5283;BME280;15376;48.540;9.268;2023-06-19T05:08:09;97270.63;;;20.59;96.13
5283;BME280;15376;48.540;9.268;2023-06-19T05:10:34;97272.84;;;20.62;94.98
5283;BME280;15376;48.540;9.268;2023-06-19T05:12:59;97278.56;;;20.66;95.68
5283;BME280;15376;48.540;9.268;2023-06-19T05:15:25;97276.09;;;20.64;97.61
5283;BME280;15376;48.540;9.268;2023-06-19T05:17:50;97263.09;;;20.61;96.63
5283;BME280;15376;48.540;9.268;2023-06-19T05:20:16;97270.19;;;20.67;95.11
5283;BME280;15376;48.540;9.268;2023-06-19T05:22:42;97260.53;;;20.71;95.88
5283;BME280;15376;48.540;9.268;2023-06-19T05:25:07;97268.97;;;20.80;96.51
5283;BME280;15376;48.540;9.268;2023-06-19T05:27:33;97243.78;;;20.69;97.00
5283;BME280;15376;48.540;9.268;2023-06-19T05:29:58;97263.13;;;20.88;95.96
5283;BME280;15376;48.540;9.268;2023-06-19T05:32:24;97269.72;;;20.97;95.66
5283;BME280;15376;48.540;9.268;2023-06-19T05:34:49;97261.84;;;20.95;96.42
5283;BME280;15376;48.540;9.268;2023-06-19T05:37:16;97260.34;;;21.05;98.11
5283;BME280;15376;48.540;9.268;2023-06-19T05:39:41;97274.91;;;21.30;97.11
5283;BME280;15376;48.540;9.268;2023-06-19T05:42:06;97281.22;;;21.41;97.64
5283;BME280;15376;48.540;9.268;2023-06-19T05:44:32;97282.66;;;21.49;96.45
5283;BME280;15376;48.540;9.268;2023-06-19T05:46:57;97268.38;;;21.53;93.20
5283;BME280;15376;48.540;9.268;2023-06-19T05:49:22;97282.50;;;21.66;90.70
5283;BME280;15376;48.540;9.268;2023-06-19T05:51:48;97292.31;;;21.77;89.87
5283;BME280;15376;48.540;9.268;2023-06-19T05:54:13;97278.03;;;21.81;88.70
5283;BME280;15376;48.540;9.268;2023-06-19T05:56:38;97296.28;;;22.01;88.57
5283;BME280;15376;48.540;9.268;2023-06-19T05:59:04;97290.66;;;22.08;88.54
5283;BME280;15376;48.540;9.268;2023-06-19T06:01:30;97296.13;;;22.18;87.30
5283;BME280;15376;48.540;9.268;2023-06-19T06:03:56;97295.09;;;22.24;88.96
5283;BME280;15376;48.540;9.268;2023-06-19T06:06:24;97285.69;;;22.32;87.52
5283;BME280;15376;48.540;9.268;2023-06-19T06:08:51;97294.94;;;22.46;88.60
5283;BME280;15376;48.540;9.268;2023-06-19T06:11:16;97283.84;;;22.47;86.32
5283;BME280;15376;48.540;9.268;2023-06-19T06:13:42;97293.94;;;22.67;85.30
5283;BME280;15376;48.540;9.268;2023-06-19T06:16:07;97294.25;;;22.71;84.65
5283;BME280;15376;48.540;9.268;2023-06-19T06:18:32;97284.22;;;22.71;84.62
5283;BME280;15376;48.540;9.268;2023-06-19T06:20:58;97293.47;;;22.80;83.64
5283;BME280;15376;48.540;9.268;2023-06-19T06:23:25;97301.34;;;22.87;84.63
5283;BME280;15376;48.540;9.268;2023-06-19T06:25:50;97294.31;;;22.91;83.49
5283;BME280;15376;48.540;9.268;2023-06-19T06:28:15;97277.28;;;22.95;83.15
5283;BME280;15376;48.540;9.268;2023-06-19T06:30:41;97296.56;;;23.14;82.31
5283;BME280;15376;48.540;9.268;2023-06-19T06:33:07;97299.28;;;23.29;80.17
5283;BME280;15376;48.540;9.268;2023-06-19T06:35:32;97315.88;;;23.64;79.46
5283;BME280;15376;48.540;9.268;2023-06-19T06:37:57;97320.50;;;23.58;79.22
5283;BME280;15376;48.540;9.268;2023-06-19T06:40:23;97324.00;;;23.79;77.29
5283;BME280;15376;48.540;9.268;2023-06-19T06:42:48;97324.56;;;23.91;76.35
5283;BME280;15376;48.540;9.268;2023-06-19T06:45:14;97323.75;;;23.75;75.77
5283;BME280;15376;48.540;9.268;2023-06-19T06:47:40;97310.75;;;23.57;77.01
5283;BME280;15376;48.540;9.268;2023-06-19T06:50:06;97331.56;;;23.41;76.40
5283;BME280;15376;48.540;9.268;2023-06-19T06:52:32;97333.19;;;23.42;77.07
5283;BME280;15376;48.540;9.268;2023-06-19T06:54:57;97348.34;;;23.38;77.87
5283;BME280;15376;48.540;9.268;2023-06-19T06:57:23;97345.38;;;23.45;77.58
5283;BME280;15376;48.540;9.268;2023-06-19T06:59:48;97349.44;;;23.42;76.45
5283;BME280;15376;48.540;9.268;2023-06-19T07:02:13;97351.13;;;23.64;76.63
5283;BME280;15376;48.540;9.268;2023-06-19T07:04:39;97362.53;;;23.86;75.42
5283;BME280;15376;48.540;9.268;2023-06-19T07:07:04;97361.19;;;23.93;74.90
5283;BME280;15376;48.540;9.268;2023-06-19T07:09:31;97367.16;;;24.26;75.36
5283;BME280;15376;48.540;9.268;2023-06-19T07:11:56;97372.78;;;24.60;74.97
5283;BME280;15376;48.540;9.268;2023-06-19T07:14:21;97345.50;;;25.01;71.38
5283;BME280;15376;48.540;9.268;2023-06-19T07:16:47;97363.81;;;25.34;68.77
5283;BME280;15376;48.540;9.268;2023-06-19T07:19:12;97364.75;;;25.14;69.42
5283;BME280;15376;48.540;9.268;2023-06-19T07:21:38;97353.66;;;25.01;70.78
5283;BME280;15376;48.540;9.268;2023-06-19T07:24:05;97341.66;;;25.07;69.89
5283;BME280;15376;48.540;9.268;2023-06-19T07:26:31;97329.69;;;25.13;68.39
5283;BME280;15376;48.540;9.268;2023-06-19T07:28:56;97343.63;;;25.45;68.13
5283;BME280;15376;48.540;9.268;2023-06-19T07:31:22;97304.78;;;25.35;68.19
5283;BME280;15376;48.540;9.268;2023-06-19T07:33:47;97334.97;;;25.38;68.32
5283;BME280;15376;48.540;9.268;2023-06-19T07:36:13;97328.41;;;25.44;67.48
5283;BME280;15376;48.540;9.268;2023-06-19T07:38:43;97310.31;;;25.64;66.63
5283;BME280;15376;48.540;9.268;2023-06-19T07:41:09;97328.94;;;25.46;65.10
5283;BME280;15376;48.540;9.268;2023-06-19T07:43:36;97324.66;;;25.30;66.55
5283;BME280;15376;48.540;9.268;2023-06-19T07:46:02;97303.19;;;25.29;67.54
5283;BME280;15376;48.540;9.268;2023-06-19T07:48:27;97331.53;;;25.62;67.58
5283;BME280;15376;48.540;9.268;2023-06-19T07:50:53;97339.69;;;25.67;65.80
5283;BME280;15376;48.540;9.268;2023-06-19T07:53:19;97335.69;;;25.93;66.45
5283;BME280;15376;48.540;9.268;2023-06-19T07:55:44;97344.41;;;26.48;65.16
5283;BME280;15376;48.540;9.268;2023-06-19T07:58:09;97343.41;;;26.86;63.17
5283;BME280;15376;48.540;9.268;2023-06-19T08:00:35;97348.97;;;27.05;59.77
5283;BME280;15376;48.540;9.268;2023-06-19T08:03:00;97335.19;;;27.34;57.75
5283;BME280;15376;48.540;9.268;2023-06-19T08:05:26;97344.53;;;26.85;57.17
5283;BME280;15376;48.540;9.268;2023-06-19T08:07:51;97339.31;;;26.89;57.56
5283;BME280;15376;48.540;9.268;2023-06-19T08:10:17;97353.69;;;26.95;58.12
5283;BME280;15376;48.540;9.268;2023-06-19T08:12:43;97356.38;;;27.00;58.94
5283;BME280;15376;48.540;9.268;2023-06-19T08:15:12;97358.69;;;26.87;57.98
5283;BME280;15376;48.540;9.268;2023-06-19T08:17:41;97352.69;;;26.85;58.97
5283;BME280;15376;48.540;9.268;2023-06-19T08:20:07;97356.28;;;26.81;60.44
5283;BME280;15376;48.540;9.268;2023-06-19T08:22:33;97340.16;;;26.66;61.04
5283;BME280;15376;48.540;9.268;2023-06-19T08:24:58;97300.72;;;26.58;61.77
5283;BME280;15376;48.540;9.268;2023-06-19T08:27:23;97347.03;;;27.06;61.96
5283;BME280;15376;48.540;9.268;2023-06-19T08:29:49;97346.56;;;27.41;58.76
5283;BME280;15376;48.540;9.268;2023-06-19T08:32:14;97349.88;;;27.57;58.69
5283;BME280;15376;48.540;9.268;2023-06-19T08:34:39;97341.09;;;27.41;57.32
5283;BME280;15376;48.540;9.268;2023-06-19T08:37:05;97353.25;;;27.30;58.26
5283;BME280;15376;48.540;9.268;2023-06-19T08:39:31;97336.94;;;27.25;57.39
5283;BME280;15376;48.540;9.268;2023-06-19T08:41:57;97351.69;;;27.24;56.21
5283;BME280;15376;48.540;9.268;2023-06-19T08:44:22;97341.00;;;27.28;54.78
5283;BME280;15376;48.540;9.268;2023-06-19T08:46:47;97357.59;;;27.31;56.33
5283;BME280;15376;48.540;9.268;2023-06-19T08:49:13;97344.31;;;27.24;55.13
5283;BME280;15376;48.540;9.268;2023-06-19T08:51:40;97334.91;;;27.54;55.37
5283;BME280;15376;48.540;9.268;2023-06-19T08:54:07;97343.38;;;27.72;53.52
5283;BME280;15376;48.540;9.268;2023-06-19T08:56:34;97348.69;;;27.63;53.61
5283;BME280;15376;48.540;9.268;2023-06-19T08:59:16;97350.91;;;27.61;49.77
5283;BME280;15376;48.540;9.268;2023-06-19T09:01:52;97340.50;;;27.44;51.35
5283;BME280;15376;48.540;9.268;2023-06-19T09:04:21;97353.00;;;27.08;51.88
5283;BME280;15376;48.540;9.268;2023-06-19T09:06:50;97332.19;;;26.45;53.06
5283;BME280;15376;48.540;9.268;2023-06-19T09:09:18;97357.84;;;26.39;53.19
5283;BME280;15376;48.540;9.268;2023-06-19T09:11:57;97354.13;;;26.30;54.22
5283;BME280;15376;48.540;9.268;2023-06-19T09:14:40;97354.66;;;26.32;55.05
5283;BME280;15376;48.540;9.268;2023-06-19T09:17:11;97341.94;;;26.22;55.32
5283;BME280;15376;48.540;9.268;2023-06-19T09:19:37;97355.59;;;26.46;55.42
5283;BME280;15376;48.540;9.268;2023-06-19T09:22:04;97358.94;;;26.67;55.85
5283;BME280;15376;48.540;9.268;2023-06-19T09:24:40;97344.16;;;26.73;54.99
5283;BME280;15376;48.540;9.268;2023-06-19T09:27:10;97351.06;;;26.84;55.28
5283;BME280;15376;48.540;9.268;2023-06-19T09:29:43;97346.00;;;27.02;53.51
5283;BME280;15376;48.540;9.268;2023-06-19T09:32:21;97337.25;;;27.23;53.52
5283;BME280;15376;48.540;9.268;2023-06-19T09:34:48;97335.19;;;27.34;53.06
5283;BME280;15376;48.540;9.268;2023-06-19T09:37:14;97323.38;;;27.20;53.47
5283;BME280;15376;48.540;9.268;2023-06-19T09:39:41;97338.97;;;27.57;52.49
5283;BME280;15376;48.540;9.268;2023-06-19T09:42:09;97328.22;;;27.98;52.92
5283;BME280;15376;48.540;9.268;2023-06-19T09:44:42;97310.81;;;28.27;51.98
5283;BME280;15376;48.540;9.268;2023-06-19T09:47:16;97333.63;;;28.91;49.79
5283;BME280;15376;48.540;9.268;2023-06-19T09:49:48;97328.97;;;29.05;49.01
5283;BME280;15376;48.540;9.268;2023-06-19T09:52:15;97325.06;;;29.19;48.36
5283;BME280;15376;48.540;9.268;2023-06-19T09:54:42;97328.91;;;29.32;47.11
5283;BME280;15376;48.540;9.268;2023-06-19T09:57:10;97340.84;;;29.36;47.26
5283;BME280;15376;48.540;9.268;2023-06-19T09:59:36;97342.69;;;29.41;47.67
5283;BME280;15376;48.540;9.268;2023-06-19T10:02:03;97339.22;;;29.35;47.09
5283;BME280;15376;48.540;9.268;2023-06-19T10:04:51;97341.94;;;29.13;46.33
5283;BME280;15376;48.540;9.268;2023-06-19T10:07:32;97340.47;;;29.43;44.33
5283;BME280;15376;48.540;9.268;2023-06-19T10:10:05;97348.66;;;29.29;44.98
5283;BME280;15376;48.540;9.268;2023-06-19T10:12:44;97346.53;;;29.40;43.19
5283;BME280;15376;48.540;9.268;2023-06-19T10:15:20;97338.94;;;29.23;43.39
5283;BME280;15376;48.540;9.268;2023-06-19T10:17:51;97334.91;;;29.20;43.70
5283;BME280;15376;48.540;9.268;2023-06-19T10:20:57;97337.50;;;29.53;42.40
5283;BME280;15376;48.540;9.268;2023-06-19T10:23:18;97343.56;;;30.08;42.61
5283;BME280;15376;48.540;9.268;2023-06-19T10:25:49;97348.78;;;30.80;40.42
5283;BME280;15376;48.540;9.268;2023-06-19T10:28:30;97353.22;;;31.73;37.38
5283;BME280;15376;48.540;9.268;2023-06-19T10:31:06;97332.72;;;32.52;36.82
5283;BME280;15376;48.540;9.268;2023-06-19T10:33:33;97342.31;;;34.05;34.32
5283;BME280;15376;48.540;9.268;2023-06-19T10:36:17;97349.06;;;35.34;32.75
5283;BME280;15376;48.540;9.268;2023-06-19T10:38:42;97349.03;;;36.27;30.81
5283;BME280;15376;48.540;9.268;2023-06-19T10:41:16;97325.69;;;36.71;29.98
5283;BME280;15376;48.540;9.268;2023-06-19T10:43:41;97333.56;;;38.10;29.09
5283;BME280;15376;48.540;9.268;2023-06-19T10:46:07;97336.78;;;37.03;28.25
5283;BME280;15376;48.540;9.268;2023-06-19T10:48:32;97333.81;;;36.49;29.58
5283;BME280;15376;48.540;9.268;2023-06-19T10:50:58;97338.72;;;36.55;29.42
5283;BME280;15376;48.540;9.268;2023-06-19T10:53:30;97329.09;;;36.81;29.56
5283;BME280;15376;48.540;9.268;2023-06-19T10:55:57;97323.31;;;37.91;28.04
5283;BME280;15376;48.540;9.268;2023-06-19T10:58:24;97331.75;;;37.24;28.32
5283;BME280;15376;48.540;9.268;2023-06-19T11:00:49;97288.75;;;35.49;30.17
5283;BME280;15376;48.540;9.268;2023-06-19T11:03:15;97320.50;;;34.45;32.05
5283;BME280;15376;48.540;9.268;2023-06-19T11:05:43;97319.84;;;34.85;31.42
5283;BME280;15376;48.540;9.268;2023-06-19T11:08:09;97319.81;;;35.46;30.91
5283;BME280;15376;48.540;9.268;2023-06-19T11:10:34;97309.88;;;36.40;30.00
5283;BME280;15376;48.540;9.268;2023-06-19T11:13:00;97301.94;;;37.02;28.45
5283;BME280;15376;48.540;9.268;2023-06-19T11:15:33;97315.31;;;38.09;27.57
5283;BME280;15376;48.540;9.268;2023-06-19T11:18:00;97301.47;;;37.51;27.48
5283;BME280;15376;48.540;9.268;2023-06-19T11:20:26;97304.25;;;37.70;26.74
5283;BME280;15376;48.540;9.268;2023-06-19T11:22:57;97302.03;;;36.42;27.67
5283;BME280;15376;48.540;9.268;2023-06-19T11:25:23;97287.59;;;36.33;28.76
5283;BME280;15376;48.540;9.268;2023-06-19T11:27:49;97286.28;;;34.83;30.29
5283;BME280;15376;48.540;9.268;2023-06-19T11:30:17;97277.94;;;35.19;30.44
5283;BME280;15376;48.540;9.268;2023-06-19T11:32:43;97270.88;;;35.86;29.10
5283;BME280;15376;48.540;9.268;2023-06-19T11:35:11;97294.00;;;36.53;27.42
5283;BME280;15376;48.540;9.268;2023-06-19T11:37:41;97287.13;;;35.88;29.33
5283;BME280;15376;48.540;9.268;2023-06-19T11:40:07;97282.75;;;37.28;27.41
5283;BME280;15376;48.540;9.268;2023-06-19T11:42:57;97284.03;;;37.15;27.78
5283;BME280;15376;48.540;9.268;2023-06-19T11:45:22;97254.97;;;36.90;26.73
5283;BME280;15376;48.540;9.268;2023-06-19T11:47:49;97264.81;;;36.71;27.75
5283;BME280;15376;48.540;9.268;2023-06-19T11:50:15;97254.94;;;36.11;28.14
5283;BME280;15376;48.540;9.268;2023-06-19T11:52:42;97276.72;;;36.13;28.42
5283;BME280;15376;48.540;9.268;2023-06-19T11:55:08;97255.22;;;34.73;29.91
5283;BME280;15376;48.540;9.268;2023-06-19T11:57:35;97267.66;;;33.77;30.58
5283;BME280;15376;48.540;9.268;2023-06-19T12:00:00;97264.91;;;32.94;33.05
5283;BME280;15376;48.540;9.268;2023-06-19T12:02:25;97253.47;;;33.54;31.77
5283;BME280;15376;48.540;9.268;2023-06-19T12:04:51;97241.59;;;35.29;31.95
5283;BME280;15376;48.540;9.268;2023-06-19T12:07:17;97258.50;;;37.06;28.36
5283;BME280;15376;48.540;9.268;2023-06-19T12:09:43;97246.88;;;38.58;26.09
5283;BME280;15376;48.540;9.268;2023-06-19T12:12:09;97255.09;;;39.30;25.36
5283;BME280;15376;48.540;9.268;2023-06-19T12:14:34;97263.44;;;39.30;24.06
5283;BME280;15376;48.540;9.268;2023-06-19T12:17:00;97252.03;;;38.83;25.25
5283;BME280;15376;48.540;9.268;2023-06-19T12:19:26;97249.03;;;39.21;24.03
5283;BME280;15376;48.540;9.268;2023-06-19T12:21:53;97252.97;;;39.20;23.64
5283;BME280;15376;48.540;9.268;2023-06-19T12:24:18;97273.06;;;39.37;23.95
5283;BME280;15376;48.540;9.268;2023-06-19T12:26:43;97270.84;;;39.46;23.62
5283;BME280;15376;48.540;9.268;2023-06-19T12:29:09;97260.34;;;39.99;23.58
5283;BME280;15376;48.540;9.268;2023-06-19T12:31:35;97263.59;;;40.45;23.20
5283;BME280;15376;48.540;9.268;2023-06-19T12:34:03;97252.09;;;40.10;22.44
5283;BME280;15376;48.540;9.268;2023-06-19T12:36:31;97265.19;;;39.72;22.35
5283;BME280;15376;48.540;9.268;2023-06-19T12:38:58;97254.25;;;39.26;23.36
5283;BME280;15376;48.540;9.268;2023-06-19T12:41:23;97258.78;;;40.02;22.64
5283;BME280;15376;48.540;9.268;2023-06-19T12:43:48;97251.22;;;38.82;23.41
5283;BME280;15376;48.540;9.268;2023-06-19T12:46:14;97248.00;;;38.80;23.57
5283;BME280;15376;48.540;9.268;2023-06-19T12:48:41;97227.94;;;38.90;23.48
5283;BME280;15376;48.540;9.268;2023-06-19T12:51:06;97215.22;;;38.40;24.17
5283;BME280;15376;48.540;9.268;2023-06-19T12:53:32;97237.94;;;37.81;24.82
5283;BME280;15376;48.540;9.268;2023-06-19T12:55:58;97237.38;;;37.71;24.71
5283;BME280;15376;48.540;9.268;2023-06-19T12:58:23;97230.56;;;37.30;25.39
5283;BME280;15376;48.540;9.268;2023-06-19T13:00:49;97228.75;;;37.57;25.90
5283;BME280;15376;48.540;9.268;2023-06-19T13:03:14;97201.91;;;38.49;24.81
5283;BME280;15376;48.540;9.268;2023-06-19T13:05:40;97215.94;;;39.09;23.71
5283;BME280;15376;48.540;9.268;2023-06-19T13:08:05;97230.88;;;39.01;23.50
5283;BME280;15376;48.540;9.268;2023-06-19T13:10:30;97231.09;;;39.15;23.65